Terminal Aerodrome Forecast
Issued by NWS

Home | Current Version | Previous Version | Text Only | Print | Product List | Glossary On
Versions: 1 2 3 4 5 6 7 8 9 10 11 12 13 14 15 16 17 18 19 20 21
000
FTAK31 PANC 191731
TAFADU
TAF
PADU 191731Z 1918/2018 VRB04KT P6SM VCSH SCT030
     FM200000 11012KT P6SM -SHRA BKN025 OVC050
     FM200400 12012G22KT 5SM -RA BR BKN015 OVC025
     FM201000 07010KT 6SM -RA BR BKN015 OVC025
     FM201600 03010G20KT 6SM -RA BR OVC015=

USA.gov is the U.S. government's official web portal to all federal, state and local government web resources and services.